首页
METAR-TAF:

METAR-TAF

机场 :

Lamoni Municipal Airport

Lamoni, 艾奥瓦州, 美国

纬度: 40-37-50N, 经度: 093-54-03W, 海拔: 344米

当前天气观测

该预报发布于43分钟前的17:53 UTC
风速5节,风向多变
温度 27°C
湿度 70%
气压 1010 hPa
能見度: 16.1公里
天空无云

METAR: KLWD 041753Z AUTO VRB05KT 10SM CLR 27/21 A2982 RMK AO2 SLP088 T02720206 10278 20189 56004

时间: 13:36 (18:36 UTC)


TAF: 丢失

超过4000个机场的气象观测和天气预报(METAR&TAF报告)。

可查询的气象台以黄色和红色小点在地图上表示。

将鼠标移到小点上方,可查看气象台名称。

然后点击查看天气观测和预报。

如需切换地图:点击带黑十字的绿色按钮放大地图;点击带横线的绿色按钮缩小地图;或者点击绿色箭头查看邻近地区的地图。


METAR-TAF: